sensor_id;sensor_type;location;lat;lon;timestamp;temperature;humidity
21891;DHT22;11110;52.386;16.940;2024-03-23T00:56:06;24.30;50.40
21891;DHT22;11110;52.386;16.940;2024-03-23T00:58:33;24.40;50.40
21891;DHT22;11110;52.386;16.940;2024-03-23T01:01:01;24.30;50.30
21891;DHT22;11110;52.386;16.940;2024-03-23T01:03:29;24.40;50.20
21891;DHT22;11110;52.386;16.940;2024-03-23T01:05:59;24.40;50.20
21891;DHT22;11110;52.386;16.940;2024-03-23T01:08:26;24.40;50.20
21891;DHT22;11110;52.386;16.940;2024-03-23T01:10:59;24.40;50.10
21891;DHT22;11110;52.386;16.940;2024-03-23T01:13:26;24.50;50.20
21891;DHT22;11110;52.386;16.940;2024-03-23T01:15:55;24.40;50.10
21891;DHT22;11110;52.386;16.940;2024-03-23T01:18:23;24.40;50.10
21891;DHT22;11110;52.386;16.940;2024-03-23T01:20:52;24.40;50.10
21891;DHT22;11110;52.386;16.940;2024-03-23T01:23:19;24.40;50.10
21891;DHT22;11110;52.386;16.940;2024-03-23T01:25:51;24.40;50.00
21891;DHT22;11110;52.386;16.940;2024-03-23T01:28:20;24.50;50.00
21891;DHT22;11110;52.386;16.940;2024-03-23T01:30:48;24.50;50.00
21891;DHT22;11110;52.386;16.940;2024-03-23T01:33:15;24.50;50.00
21891;DHT22;11110;52.386;16.940;2024-03-23T01:35:42;24.50;50.00
21891;DHT22;11110;52.386;16.940;2024-03-23T01:38:09;24.50;50.10
21891;DHT22;11110;52.386;16.940;2024-03-23T01:40:36;24.50;50.00
21891;DHT22;11110;52.386;16.940;2024-03-23T01:43:05;24.50;50.00
21891;DHT22;11110;52.386;16.940;2024-03-23T01:45:34;24.50;50.00
21891;DHT22;11110;52.386;16.940;2024-03-23T01:48:01;24.50;50.00
21891;DHT22;11110;52.386;16.940;2024-03-23T01:50:30;24.50;50.00
21891;DHT22;11110;52.386;16.940;2024-03-23T01:53:00;24.50;50.00
21891;DHT22;11110;52.386;16.940;2024-03-23T01:55:31;24.50;50.00
21891;DHT22;11110;52.386;16.940;2024-03-23T01:57:58;24.50;50.00
21891;DHT22;11110;52.386;16.940;2024-03-23T02:00:25;24.50;50.00
21891;DHT22;11110;52.386;16.940;2024-03-23T02:02:55;24.60;50.10
21891;DHT22;11110;52.386;16.940;2024-03-23T02:05:23;24.50;50.00
21891;DHT22;11110;52.386;16.940;2024-03-23T02:07:51;24.60;50.00
21891;DHT22;11110;52.386;16.940;2024-03-23T02:10:18;24.50;50.00
21891;DHT22;11110;52.386;16.940;2024-03-23T02:12:45;24.60;50.00
21891;DHT22;11110;52.386;16.940;2024-03-23T02:15:12;24.60;50.00
21891;DHT22;11110;52.386;16.940;2024-03-23T02:17:39;24.60;50.00
21891;DHT22;11110;52.386;16.940;2024-03-23T02:20:10;24.60;50.00
21891;DHT22;11110;52.386;16.940;2024-03-23T02:22:38;24.70;49.90
21891;DHT22;11110;52.386;16.940;2024-03-23T02:25:07;24.60;50.00
21891;DHT22;11110;52.386;16.940;2024-03-23T02:27:34;24.60;49.90
21891;DHT22;11110;52.386;16.940;2024-03-23T02:30:02;24.60;49.90
21891;DHT22;11110;52.386;16.940;2024-03-23T02:32:29;24.60;49.80
21891;DHT22;11110;52.386;16.940;2024-03-23T02:34:56;24.70;50.00
21891;DHT22;11110;52.386;16.940;2024-03-23T02:37:23;24.60;49.90
21891;DHT22;11110;52.386;16.940;2024-03-23T02:39:50;24.70;50.00
21891;DHT22;11110;52.386;16.940;2024-03-23T02:42:18;24.60;50.00
21891;DHT22;11110;52.386;16.940;2024-03-23T02:44:46;24.60;49.90
21891;DHT22;11110;52.386;16.940;2024-03-23T02:47:13;24.60;50.00
21891;DHT22;11110;52.386;16.940;2024-03-23T02:49:40;24.60;50.00
21891;DHT22;11110;52.386;16.940;2024-03-23T02:52:07;24.70;50.00
21891;DHT22;11110;52.386;16.940;2024-03-23T02:54:34;24.60;50.00
21891;DHT22;11110;52.386;16.940;2024-03-23T02:57:01;24.60;50.00
21891;DHT22;11110;52.386;16.940;2024-03-23T02:59:30;24.60;50.00
21891;DHT22;11110;52.386;16.940;2024-03-23T03:01:56;24.60;50.00
21891;DHT22;11110;52.386;16.940;2024-03-23T03:04:26;24.60;50.60
21891;DHT22;11110;52.386;16.940;2024-03-23T03:06:52;24.60;50.00
21891;DHT22;11110;52.386;16.940;2024-03-23T03:09:20;24.60;50.00
21891;DHT22;11110;52.386;16.940;2024-03-23T03:11:47;24.60;50.10
21891;DHT22;11110;52.386;16.940;2024-03-23T03:14:15;24.60;50.80
21891;DHT22;11110;52.386;16.940;2024-03-23T03:16:43;24.50;50.10
21891;DHT22;11110;52.386;16.940;2024-03-23T03:19:10;24.50;50.10
21891;DHT22;11110;52.386;16.940;2024-03-23T03:21:38;24.50;50.10
21891;DHT22;11110;52.386;16.940;2024-03-23T03:24:06;24.60;50.20
21891;DHT22;11110;52.386;16.940;2024-03-23T03:26:33;24.50;50.20
21891;DHT22;11110;52.386;16.940;2024-03-23T03:29:00;24.50;50.80
21891;DHT22;11110;52.386;16.940;2024-03-23T03:31:27;24.50;50.10
21891;DHT22;11110;52.386;16.940;2024-03-23T03:33:56;24.60;50.20
21891;DHT22;11110;52.386;16.940;2024-03-23T03:36:22;24.50;50.10
21891;DHT22;11110;52.386;16.940;2024-03-23T03:38:50;24.50;50.10
21891;DHT22;11110;52.386;16.940;2024-03-23T03:41:18;24.50;50.10
21891;DHT22;11110;52.386;16.940;2024-03-23T03:43:45;24.50;50.80
21891;DHT22;11110;52.386;16.940;2024-03-23T03:46:12;24.50;50.10
21891;DHT22;11110;52.386;16.940;2024-03-23T03:48:39;24.50;50.10
21891;DHT22;11110;52.386;16.940;2024-03-23T03:51:07;24.50;50.10
21891;DHT22;11110;52.386;16.940;2024-03-23T03:53:35;24.50;50.10
21891;DHT22;11110;52.386;16.940;2024-03-23T03:56:02;24.50;50.10
21891;DHT22;11110;52.386;16.940;2024-03-23T03:58:29;24.50;50.10
21891;DHT22;11110;52.386;16.940;2024-03-23T04:00:56;24.50;50.20
21891;DHT22;11110;52.386;16.940;2024-03-23T04:03:23;24.50;50.20
21891;DHT22;11110;52.386;16.940;2024-03-23T04:05:51;24.40;50.20
21891;DHT22;11110;52.386;16.940;2024-03-23T04:08:20;24.50;50.20
21891;DHT22;11110;52.386;16.940;2024-03-23T04:10:47;24.50;50.20
21891;DHT22;11110;52.386;16.940;2024-03-23T04:13:15;24.40;50.20
21891;DHT22;11110;52.386;16.940;2024-03-23T04:15:41;24.50;50.30
21891;DHT22;11110;52.386;16.940;2024-03-23T04:18:09;24.40;50.20
21891;DHT22;11110;52.386;16.940;2024-03-23T04:20:36;24.40;50.20
21891;DHT22;11110;52.386;16.940;2024-03-23T04:23:03;24.40;50.80
21891;DHT22;11110;52.386;16.940;2024-03-23T04:25:31;24.40;50.20
21891;DHT22;11110;52.386;16.940;2024-03-23T04:27:58;24.50;50.20
21891;DHT22;11110;52.386;16.940;2024-03-23T04:30:26;24.50;50.20
21891;DHT22;11110;52.386;16.940;2024-03-23T04:32:55;24.40;50.10
21891;DHT22;11110;52.386;16.940;2024-03-23T04:35:23;24.10;48.30
21891;DHT22;11110;52.386;16.940;2024-03-23T04:37:51;23.90;47.60
21891;DHT22;11110;52.386;16.940;2024-03-23T04:40:19;23.60;47.50
21891;DHT22;11110;52.386;16.940;2024-03-23T04:42:47;23.30;47.60
21891;DHT22;11110;52.386;16.940;2024-03-23T04:45:15;23.00;47.70
21891;DHT22;11110;52.386;16.940;2024-03-23T04:47:43;22.80;48.10
21891;DHT22;11110;52.386;16.940;2024-03-23T04:50:10;22.60;48.40
21891;DHT22;11110;52.386;16.940;2024-03-23T04:52:38;22.40;48.70
21891;DHT22;11110;52.386;16.940;2024-03-23T04:55:06;22.20;48.90
21891;DHT22;11110;52.386;16.940;2024-03-23T04:57:34;22.10;49.10
21891;DHT22;11110;52.386;16.940;2024-03-23T05:00:02;21.90;49.50
21891;DHT22;11110;52.386;16.940;2024-03-23T05:02:41;22.00;49.80
21891;DHT22;11110;52.386;16.940;2024-03-23T05:05:08;22.00;49.60
21891;DHT22;11110;52.386;16.940;2024-03-23T05:07:35;22.00;49.40
21891;DHT22;11110;52.386;16.940;2024-03-23T05:10:02;22.00;49.50
21891;DHT22;11110;52.386;16.940;2024-03-23T05:12:30;22.00;49.90
21891;DHT22;11110;52.386;16.940;2024-03-23T05:14:57;22.00;49.70
21891;DHT22;11110;52.386;16.940;2024-03-23T05:17:26;22.10;50.40
21891;DHT22;11110;52.386;16.940;2024-03-23T05:19:52;22.20;49.60
21891;DHT22;11110;52.386;16.940;2024-03-23T05:22:20;22.20;49.10
21891;DHT22;11110;52.386;16.940;2024-03-23T05:24:46;22.30;49.00
21891;DHT22;11110;52.386;16.940;2024-03-23T05:27:14;22.30;48.90
21891;DHT22;11110;52.386;16.940;2024-03-23T05:29:41;22.30;48.80
21891;DHT22;11110;52.386;16.940;2024-03-23T05:32:08;22.10;48.70
21891;DHT22;11110;52.386;16.940;2024-03-23T05:34:36;22.10;48.80
21891;DHT22;11110;52.386;16.940;2024-03-23T05:37:04;22.00;49.10
21891;DHT22;11110;52.386;16.940;2024-03-23T05:39:31;22.00;49.20
21891;DHT22;11110;52.386;16.940;2024-03-23T05:41:58;22.10;49.30
21891;DHT22;11110;52.386;16.940;2024-03-23T05:44:25;22.10;49.40
21891;DHT22;11110;52.386;16.940;2024-03-23T05:46:52;22.20;49.50
21891;DHT22;11110;52.386;16.940;2024-03-23T05:49:19;22.20;49.20
21891;DHT22;11110;52.386;16.940;2024-03-23T05:51:48;22.30;49.20
21891;DHT22;11110;52.386;16.940;2024-03-23T05:54:15;22.40;49.10
21891;DHT22;11110;52.386;16.940;2024-03-23T05:56:42;22.50;49.00
21891;DHT22;11110;52.386;16.940;2024-03-23T05:59:09;22.50;48.70
21891;DHT22;11110;52.386;16.940;2024-03-23T06:01:36;22.60;48.70
21891;DHT22;11110;52.386;16.940;2024-03-23T06:04:05;22.60;48.50
21891;DHT22;11110;52.386;16.940;2024-03-23T06:06:32;22.70;48.60
21891;DHT22;11110;52.386;16.940;2024-03-23T06:09:00;22.70;48.50
21891;DHT22;11110;52.386;16.940;2024-03-23T06:11:28;22.80;48.40
21891;DHT22;11110;52.386;16.940;2024-03-23T06:13:55;22.70;48.80
21891;DHT22;11110;52.386;16.940;2024-03-23T06:16:23;22.80;48.00
21891;DHT22;11110;52.386;16.940;2024-03-23T06:18:50;22.70;47.90
21891;DHT22;11110;52.386;16.940;2024-03-23T06:21:18;22.70;48.00
21891;DHT22;11110;52.386;16.940;2024-03-23T06:23:45;22.70;48.00
21891;DHT22;11110;52.386;16.940;2024-03-23T06:26:18;22.60;48.10
21891;DHT22;11110;52.386;16.940;2024-03-23T06:28:45;22.70;48.40
21891;DHT22;11110;52.386;16.940;2024-03-23T06:31:13;22.70;48.50
21891;DHT22;11110;52.386;16.940;2024-03-23T06:33:40;22.70;48.50
21891;DHT22;11110;52.386;16.940;2024-03-23T06:36:09;22.70;49.00
21891;DHT22;11110;52.386;16.940;2024-03-23T06:38:36;22.80;48.40
21891;DHT22;11110;52.386;16.940;2024-03-23T06:41:04;22.80;48.40
21891;DHT22;11110;52.386;16.940;2024-03-23T06:43:32;22.80;48.40
21891;DHT22;11110;52.386;16.940;2024-03-23T06:46:00;22.90;48.40
21891;DHT22;11110;52.386;16.940;2024-03-23T06:48:26;22.90;48.50
21891;DHT22;11110;52.386;16.940;2024-03-23T06:50:57;22.90;48.40
21891;DHT22;11110;52.386;16.940;2024-03-23T06:53:25;23.00;48.20
21891;DHT22;11110;52.386;16.940;2024-03-23T06:55:52;23.00;48.00
21891;DHT22;11110;52.386;16.940;2024-03-23T06:58:20;23.00;47.50
21891;DHT22;11110;52.386;16.940;2024-03-23T07:00:48;22.90;47.10
21891;DHT22;11110;52.386;16.940;2024-03-23T07:03:17;23.00;47.30
21891;DHT22;11110;52.386;16.940;2024-03-23T07:05:44;22.90;47.50
21891;DHT22;11110;52.386;16.940;2024-03-23T07:08:12;23.00;47.60
21891;DHT22;11110;52.386;16.940;2024-03-23T07:10:39;23.00;47.60
21891;DHT22;11110;52.386;16.940;2024-03-23T07:13:07;23.00;47.60
21891;DHT22;11110;52.386;16.940;2024-03-23T07:15:34;23.00;47.40
21891;DHT22;11110;52.386;16.940;2024-03-23T07:18:03;23.00;46.90
21891;DHT22;11110;52.386;16.940;2024-03-23T07:20:30;23.00;46.90
21891;DHT22;11110;52.386;16.940;2024-03-23T07:22:58;23.00;47.10
21891;DHT22;11110;52.386;16.940;2024-03-23T07:25:24;23.00;47.10
21891;DHT22;11110;52.386;16.940;2024-03-23T07:27:53;23.00;47.20
21891;DHT22;11110;52.386;16.940;2024-03-23T07:30:20;22.70;47.20
21891;DHT22;11110;52.386;16.940;2024-03-23T07:32:47;23.10;47.40
21891;DHT22;11110;52.386;16.940;2024-03-23T07:35:16;23.10;47.60
21891;DHT22;11110;52.386;16.940;2024-03-23T07:37:43;23.10;47.50
21891;DHT22;11110;52.386;16.940;2024-03-23T07:40:10;23.20;47.40
21891;DHT22;11110;52.386;16.940;2024-03-23T07:42:39;23.20;47.20
21891;DHT22;11110;52.386;16.940;2024-03-23T07:45:06;23.20;47.00
21891;DHT22;11110;52.386;16.940;2024-03-23T07:47:34;23.10;47.00
21891;DHT22;11110;52.386;16.940;2024-03-23T07:50:00;23.00;46.90
21891;DHT22;11110;52.386;16.940;2024-03-23T07:52:29;23.00;47.20
21891;DHT22;11110;52.386;16.940;2024-03-23T07:54:56;22.90;47.10
21891;DHT22;11110;52.386;16.940;2024-03-23T07:57:23;22.80;47.20
21891;DHT22;11110;52.386;16.940;2024-03-23T07:59:50;22.70;47.50
21891;DHT22;11110;52.386;16.940;2024-03-23T08:02:18;22.70;47.80
21891;DHT22;11110;52.386;16.940;2024-03-23T08:04:44;22.70;48.20
21891;DHT22;11110;52.386;16.940;2024-03-23T08:07:12;22.80;48.30
21891;DHT22;11110;52.386;16.940;2024-03-23T08:09:40;22.80;48.00
21891;DHT22;11110;52.386;16.940;2024-03-23T08:12:07;22.80;48.00
21891;DHT22;11110;52.386;16.940;2024-03-23T08:14:34;22.80;47.80
21891;DHT22;11110;52.386;16.940;2024-03-23T08:17:02;22.80;47.60
21891;DHT22;11110;52.386;16.940;2024-03-23T08:19:28;22.80;47.70
21891;DHT22;11110;52.386;16.940;2024-03-23T08:21:56;22.80;47.90
21891;DHT22;11110;52.386;16.940;2024-03-23T08:24:22;22.90;48.00
21891;DHT22;11110;52.386;16.940;2024-03-23T08:26:51;22.90;47.90
21891;DHT22;11110;52.386;16.940;2024-03-23T08:29:20;22.90;47.70
21891;DHT22;11110;52.386;16.940;2024-03-23T08:31:48;22.90;47.60
21891;DHT22;11110;52.386;16.940;2024-03-23T08:34:14;22.90;47.80
21891;DHT22;11110;52.386;16.940;2024-03-23T08:36:42;22.90;47.90
21891;DHT22;11110;52.386;16.940;2024-03-23T08:39:09;22.90;47.80
21891;DHT22;11110;52.386;16.940;2024-03-23T08:41:36;22.90;47.80
21891;DHT22;11110;52.386;16.940;2024-03-23T08:44:05;22.90;48.20
21891;DHT22;11110;52.386;16.940;2024-03-23T08:46:32;22.90;48.20
21891;DHT22;11110;52.386;16.940;2024-03-23T08:48:59;23.00;48.20
21891;DHT22;11110;52.386;16.940;2024-03-23T08:51:26;22.90;48.10
21891;DHT22;11110;52.386;16.940;2024-03-23T08:53:52;22.90;48.00
21891;DHT22;11110;52.386;16.940;2024-03-23T08:56:20;22.90;47.90
21891;DHT22;11110;52.386;16.940;2024-03-23T08:58:46;23.00;48.20
21891;DHT22;11110;52.386;16.940;2024-03-23T09:01:15;23.00;48.50
21891;DHT22;11110;52.386;16.940;2024-03-23T09:03:42;23.10;48.70
21891;DHT22;11110;52.386;16.940;2024-03-23T09:06:10;23.20;48.50
21891;DHT22;11110;52.386;16.940;2024-03-23T09:08:38;23.20;48.10
21891;DHT22;11110;52.386;16.940;2024-03-23T09:11:08;23.20;47.90
21891;DHT22;11110;52.386;16.940;2024-03-23T09:13:35;23.20;48.00
21891;DHT22;11110;52.386;16.940;2024-03-23T09:16:04;23.10;48.30
21891;DHT22;11110;52.386;16.940;2024-03-23T09:18:34;23.20;48.40
21891;DHT22;11110;52.386;16.940;2024-03-23T09:21:01;23.10;48.00
21891;DHT22;11110;52.386;16.940;2024-03-23T09:23:28;23.10;47.90
21891;DHT22;11110;52.386;16.940;2024-03-23T09:25:55;23.10;48.00
21891;DHT22;11110;52.386;16.940;2024-03-23T09:28:22;23.10;48.00
21891;DHT22;11110;52.386;16.940;2024-03-23T09:30:49;23.00;48.20
21891;DHT22;11110;52.386;16.940;2024-03-23T09:33:16;23.00;48.30
21891;DHT22;11110;52.386;16.940;2024-03-23T09:35:45;23.10;48.30
21891;DHT22;11110;52.386;16.940;2024-03-23T09:38:13;23.10;48.10
21891;DHT22;11110;52.386;16.940;2024-03-23T09:40:41;23.10;48.10
21891;DHT22;11110;52.386;16.940;2024-03-23T09:43:09;23.20;48.20
21891;DHT22;11110;52.386;16.940;2024-03-23T09:45:39;23.20;48.20
21891;DHT22;11110;52.386;16.940;2024-03-23T09:48:08;23.20;48.00
21891;DHT22;11110;52.386;16.940;2024-03-23T09:50:37;23.30;48.60
21891;DHT22;11110;52.386;16.940;2024-03-23T09:53:06;23.20;47.60
21891;DHT22;11110;52.386;16.940;2024-03-23T09:55:34;23.30;47.90
21891;DHT22;11110;52.386;16.940;2024-03-23T09:58:02;23.20;47.80
21891;DHT22;11110;52.386;16.940;2024-03-23T10:00:31;23.20;47.80
21891;DHT22;11110;52.386;16.940;2024-03-23T10:02:58;23.20;47.70
21891;DHT22;11110;52.386;16.940;2024-03-23T10:05:29;23.10;47.70
21891;DHT22;11110;52.386;16.940;2024-03-23T10:07:57;23.20;47.80
21891;DHT22;11110;52.386;16.940;2024-03-23T10:10:26;23.20;47.90
21891;DHT22;11110;52.386;16.940;2024-03-23T10:12:53;23.20;47.60
21891;DHT22;11110;52.386;16.940;2024-03-23T10:15:22;23.10;47.60
21891;DHT22;11110;52.386;16.940;2024-03-23T10:17:49;23.00;47.30
21891;DHT22;11110;52.386;16.940;2024-03-23T10:20:19;23.00;47.60
21891;DHT22;11110;52.386;16.940;2024-03-23T10:22:46;22.90;48.00
21891;DHT22;11110;52.386;16.940;2024-03-23T10:25:14;22.90;48.80
21891;DHT22;11110;52.386;16.940;2024-03-23T10:27:42;22.90;48.20
21891;DHT22;11110;52.386;16.940;2024-03-23T10:30:12;22.90;47.90
21891;DHT22;11110;52.386;16.940;2024-03-23T10:32:38;22.90;47.80
21891;DHT22;11110;52.386;16.940;2024-03-23T10:35:15;23.00;47.90
21891;DHT22;11110;52.386;16.940;2024-03-23T10:37:42;23.00;47.80
21891;DHT22;11110;52.386;16.940;2024-03-23T10:40:12;23.00;47.80
21891;DHT22;11110;52.386;16.940;2024-03-23T10:42:39;23.00;47.70
21891;DHT22;11110;52.386;16.940;2024-03-23T10:45:09;22.90;47.80
21891;DHT22;11110;52.386;16.940;2024-03-23T10:47:37;22.80;47.70
21891;DHT22;11110;52.386;16.940;2024-03-23T10:50:05;22.80;47.90
21891;DHT22;11110;52.386;16.940;2024-03-23T10:52:32;22.70;47.90
21891;DHT22;11110;52.386;16.940;2024-03-23T10:55:00;22.70;47.90
21891;DHT22;11110;52.386;16.940;2024-03-23T10:57:31;22.50;48.10
21891;DHT22;11110;52.386;16.940;2024-03-23T11:00:03;22.60;48.40
21891;DHT22;11110;52.386;16.940;2024-03-23T11:02:32;22.50;48.40
21891;DHT22;11110;52.386;16.940;2024-03-23T11:04:59;22.30;48.40
21891;DHT22;11110;52.386;16.940;2024-03-23T11:07:30;22.20;48.50
21891;DHT22;11110;52.386;16.940;2024-03-23T11:09:58;22.00;48.80
21891;DHT22;11110;52.386;16.940;2024-03-23T11:12:26;21.90;49.10
21891;DHT22;11110;52.386;16.940;2024-03-23T11:14:56;21.80;49.90
21891;DHT22;11110;52.386;16.940;2024-03-23T11:17:24;21.70;49.70
21891;DHT22;11110;52.386;16.940;2024-03-23T11:19:57;21.60;49.70
21891;DHT22;11110;52.386;16.940;2024-03-23T11:22:41;21.60;49.90
21891;DHT22;11110;52.386;16.940;2024-03-23T11:25:17;21.60;49.90
21891;DHT22;11110;52.386;16.940;2024-03-23T11:27:44;21.60;50.00
21891;DHT22;11110;52.386;16.940;2024-03-23T11:30:13;21.60;50.20
21891;DHT22;11110;52.386;16.940;2024-03-23T11:32:40;21.70;50.40
21891;DHT22;11110;52.386;16.940;2024-03-23T11:35:09;21.80;49.90
21891;DHT22;11110;52.386;16.940;2024-03-23T11:37:39;21.90;49.60
21891;DHT22;11110;52.386;16.940;2024-03-23T11:40:20;22.00;49.60
21891;DHT22;11110;52.386;16.940;2024-03-23T11:42:46;22.00;49.20
21891;DHT22;11110;52.386;16.940;2024-03-23T11:45:14;22.00;49.50
21891;DHT22;11110;52.386;16.940;2024-03-23T11:47:42;22.10;49.70
21891;DHT22;11110;52.386;16.940;2024-03-23T11:50:19;22.10;49.50
21891;DHT22;11110;52.386;16.940;2024-03-23T11:52:45;22.20;49.50
21891;DHT22;11110;52.386;16.940;2024-03-23T11:55:13;22.30;49.40
21891;DHT22;11110;52.386;16.940;2024-03-23T11:57:40;22.40;49.20
21891;DHT22;11110;52.386;16.940;2024-03-23T12:00:21;22.50;49.00
21891;DHT22;11110;52.386;16.940;2024-03-23T12:02:47;22.60;48.70
21891;DHT22;11110;52.386;16.940;2024-03-23T12:05:17;22.60;48.40
21891;DHT22;11110;52.386;16.940;2024-03-23T12:07:44;22.50;48.00
21891;DHT22;11110;52.386;16.940;2024-03-23T12:10:11;22.50;48.00
21891;DHT22;11110;52.386;16.940;2024-03-23T12:12:38;22.50;47.80
21891;DHT22;11110;52.386;16.940;2024-03-23T12:15:07;22.50;48.00
21891;DHT22;11110;52.386;16.940;2024-03-23T12:17:34;22.60;48.10
21891;DHT22;11110;52.386;16.940;2024-03-23T12:20:03;22.70;48.00
21891;DHT22;11110;52.386;16.940;2024-03-23T12:22:31;22.70;47.80
21891;DHT22;11110;52.386;16.940;2024-03-23T12:25:00;22.70;47.70
21891;DHT22;11110;52.386;16.940;2024-03-23T12:27:27;22.70;47.70
21891;DHT22;11110;52.386;16.940;2024-03-23T12:29:55;23.00;47.90
21891;DHT22;11110;52.386;16.940;2024-03-23T12:32:21;22.80;47.80
21891;DHT22;11110;52.386;16.940;2024-03-23T12:34:49;22.80;47.80
21891;DHT22;11110;52.386;16.940;2024-03-23T12:37:15;22.80;47.80
21891;DHT22;11110;52.386;16.940;2024-03-23T12:39:45;22.80;47.60
21891;DHT22;11110;52.386;16.940;2024-03-23T12:42:12;22.80;47.60
21891;DHT22;11110;52.386;16.940;2024-03-23T12:44:40;22.80;47.80
21891;DHT22;11110;52.386;16.940;2024-03-23T12:47:06;22.80;47.80
21891;DHT22;11110;52.386;16.940;2024-03-23T12:49:34;22.80;47.80
21891;DHT22;11110;52.386;16.940;2024-03-23T12:52:00;22.80;48.20
21891;DHT22;11110;52.386;16.940;2024-03-23T12:54:28;22.70;48.20
21891;DHT22;11110;52.386;16.940;2024-03-23T12:56:56;22.70;47.60
21891;DHT22;11110;52.386;16.940;2024-03-23T12:59:24;22.60;47.40
21891;DHT22;11110;52.386;16.940;2024-03-23T13:01:50;22.50;47.70
21891;DHT22;11110;52.386;16.940;2024-03-23T13:04:18;22.50;47.50
21891;DHT22;11110;52.386;16.940;2024-03-23T13:06:45;22.40;47.60
21891;DHT22;11110;52.386;16.940;2024-03-23T13:09:13;22.20;47.40
21891;DHT22;11110;52.386;16.940;2024-03-23T13:11:42;21.90;47.60
21891;DHT22;11110;52.386;16.940;2024-03-23T13:14:11;21.70;48.00
21891;DHT22;11110;52.386;16.940;2024-03-23T13:16:40;21.40;48.10
21891;DHT22;11110;52.386;16.940;2024-03-23T13:19:08;21.30;48.70
21891;DHT22;11110;52.386;16.940;2024-03-23T13:21:35;21.10;49.20
21891;DHT22;11110;52.386;16.940;2024-03-23T13:24:03;20.70;49.30
21891;DHT22;11110;52.386;16.940;2024-03-23T13:26:30;20.40;49.10
21891;DHT22;11110;52.386;16.940;2024-03-23T13:28:58;20.20;49.30
21891;DHT22;11110;52.386;16.940;2024-03-23T13:31:25;20.10;49.30
21891;DHT22;11110;52.386;16.940;2024-03-23T13:33:53;19.90;49.50
21891;DHT22;11110;52.386;16.940;2024-03-23T13:36:20;19.80;49.80
21891;DHT22;11110;52.386;16.940;2024-03-23T13:38:47;19.80;49.50
21891;DHT22;11110;52.386;16.940;2024-03-23T13:41:14;19.80;49.50
21891;DHT22;11110;52.386;16.940;2024-03-23T13:43:42;19.60;49.20
21891;DHT22;11110;52.386;16.940;2024-03-23T13:46:11;19.40;49.50
21891;DHT22;11110;52.386;16.940;2024-03-23T13:48:40;19.50;48.80
21891;DHT22;11110;52.386;16.940;2024-03-23T13:51:08;19.20;49.10
21891;DHT22;11110;52.386;16.940;2024-03-23T13:53:36;18.90;49.10
21891;DHT22;11110;52.386;16.940;2024-03-23T13:56:03;18.60;49.10
21891;DHT22;11110;52.386;16.940;2024-03-23T13:58:31;19.20;49.40
21891;DHT22;11110;52.386;16.940;2024-03-23T14:00:58;18.40;49.80
21891;DHT22;11110;52.386;16.940;2024-03-23T14:03:25;18.20;49.50
21891;DHT22;11110;52.386;16.940;2024-03-23T14:05:58;18.10;49.50
21891;DHT22;11110;52.386;16.940;2024-03-23T14:08:26;17.90;49.60
21891;DHT22;11110;52.386;16.940;2024-03-23T14:10:54;17.70;49.50
21891;DHT22;11110;52.386;16.940;2024-03-23T14:13:22;17.70;49.80
21891;DHT22;11110;52.386;16.940;2024-03-23T14:15:52;17.70;50.00
21891;DHT22;11110;52.386;16.940;2024-03-23T14:18:20;17.70;50.00
21891;DHT22;11110;52.386;16.940;2024-03-23T14:20:48;17.70;50.20
21891;DHT22;11110;52.386;16.940;2024-03-23T14:23:18;17.80;50.30
21891;DHT22;11110;52.386;16.940;2024-03-23T14:25:44;17.90;49.70
21891;DHT22;11110;52.386;16.940;2024-03-23T14:28:12;17.90;50.00
21891;DHT22;11110;52.386;16.940;2024-03-23T14:30:41;17.90;49.50
21891;DHT22;11110;52.386;16.940;2024-03-23T14:33:09;18.00;49.50
21891;DHT22;11110;52.386;16.940;2024-03-23T14:35:35;18.00;49.00
21891;DHT22;11110;52.386;16.940;2024-03-23T14:38:03;18.10;49.30
21891;DHT22;11110;52.386;16.940;2024-03-23T14:40:31;18.20;49.10
21891;DHT22;11110;52.386;16.940;2024-03-23T14:42:59;18.20;49.00
21891;DHT22;11110;52.386;16.940;2024-03-23T14:45:25;18.30;48.70
21891;DHT22;11110;52.386;16.940;2024-03-23T14:47:53;18.30;48.60
21891;DHT22;11110;52.386;16.940;2024-03-23T14:50:20;18.40;49.60
21891;DHT22;11110;52.386;16.940;2024-03-23T14:52:47;18.30;48.90
21891;DHT22;11110;52.386;16.940;2024-03-23T14:55:14;18.40;49.10
21891;DHT22;11110;52.386;16.940;2024-03-23T14:57:44;18.40;48.80
21891;DHT22;11110;52.386;16.940;2024-03-23T15:00:11;18.40;48.80
21891;DHT22;11110;52.386;16.940;2024-03-23T15:02:39;18.40;48.80
21891;DHT22;11110;52.386;16.940;2024-03-23T15:05:06;18.50;48.90
21891;DHT22;11110;52.386;16.940;2024-03-23T15:07:36;18.50;48.80
21891;DHT22;11110;52.386;16.940;2024-03-23T15:10:03;18.50;48.80
21891;DHT22;11110;52.386;16.940;2024-03-23T15:12:31;18.50;48.60
21891;DHT22;11110;52.386;16.940;2024-03-23T15:15:00;18.60;48.80
21891;DHT22;11110;52.386;16.940;2024-03-23T15:17:28;18.60;48.70
21891;DHT22;11110;52.386;16.940;2024-03-23T15:19:54;18.50;48.70
21891;DHT22;11110;52.386;16.940;2024-03-23T15:22:22;18.50;49.00
21891;DHT22;11110;52.386;16.940;2024-03-23T15:24:48;18.60;48.60
21891;DHT22;11110;52.386;16.940;2024-03-23T15:27:16;18.50;48.70
21891;DHT22;11110;52.386;16.940;2024-03-23T15:29:43;18.50;48.80
21891;DHT22;11110;52.386;16.940;2024-03-23T15:32:13;18.50;48.60
21891;DHT22;11110;52.386;16.940;2024-03-23T15:34:42;18.50;48.50
21891;DHT22;11110;52.386;16.940;2024-03-23T15:37:10;18.50;48.50
21891;DHT22;11110;52.386;16.940;2024-03-23T15:39:36;18.50;48.80
21891;DHT22;11110;52.386;16.940;2024-03-23T15:42:04;18.50;48.60
21891;DHT22;11110;52.386;16.940;2024-03-23T15:44:31;18.50;48.50
21891;DHT22;11110;52.386;16.940;2024-03-23T15:46:59;18.50;48.50
21891;DHT22;11110;52.386;16.940;2024-03-23T15:49:27;18.50;48.40
21891;DHT22;11110;52.386;16.940;2024-03-23T15:51:54;18.40;48.40
21891;DHT22;11110;52.386;16.940;2024-03-23T15:54:21;18.30;48.80
21891;DHT22;11110;52.386;16.940;2024-03-23T15:56:49;18.30;48.90
21891;DHT22;11110;52.386;16.940;2024-03-23T15:59:15;18.40;48.80
21891;DHT22;11110;52.386;16.940;2024-03-23T16:01:43;18.50;48.60
21891;DHT22;11110;52.386;16.940;2024-03-23T16:04:11;18.50;48.50
21891;DHT22;11110;52.386;16.940;2024-03-23T16:06:40;18.50;48.60
21891;DHT22;11110;52.386;16.940;2024-03-23T16:09:07;18.50;48.60
21891;DHT22;11110;52.386;16.940;2024-03-23T16:11:35;18.60;48.80
21891;DHT22;11110;52.386;16.940;2024-03-23T16:14:02;18.70;48.80